createdAt,value
2018-03-16T00:00:05.038Z,1
2018-03-16T00:05:03.428Z,1
2018-03-16T00:10:03.106Z,1
2018-03-16T00:15:02.583Z,1
2018-03-16T00:20:03.001Z,1
2018-03-16T00:25:02.467Z,1
2018-03-16T00:30:02.974Z,1
2018-03-16T00:35:02.491Z,1
2018-03-16T00:40:03.063Z,1
2018-03-16T00:45:02.527Z,1
2018-03-16T00:50:02.957Z,1
2018-03-16T00:55:03.453Z,1
2018-03-16T01:00:02.912Z,1
2018-03-16T01:05:02.961Z,1
2018-03-16T01:10:02.529Z,1
2018-03-16T01:15:03.132Z,1
2018-03-16T01:20:02.706Z,1
2018-03-16T01:25:03.210Z,1
2018-03-16T01:30:02.666Z,1
2018-03-16T01:35:03.161Z,1
2018-03-16T01:40:02.630Z,1
2018-03-16T01:45:03.137Z,1
2018-03-16T01:50:02.617Z,1
2018-03-16T01:55:03.056Z,1
2018-03-16T02:00:02.562Z,1
2018-03-16T02:05:03.073Z,1
2018-03-16T02:10:02.585Z,1
2018-03-16T02:15:03.072Z,1
2018-03-16T02:20:02.654Z,1
2018-03-16T02:25:03.156Z,1
2018-03-16T02:30:02.597Z,1
2018-03-16T02:35:03.104Z,1
2018-03-16T02:40:02.676Z,1
2018-03-16T02:45:03.170Z,1
2018-03-16T02:50:02.690Z,1
2018-03-16T02:55:03.115Z,1
2018-03-16T03:00:02.661Z,1
2018-03-16T03:05:03.172Z,1
2018-03-16T03:10:02.690Z,1
2018-03-16T03:15:03.155Z,1
2018-03-16T03:20:02.650Z,1
2018-03-16T03:25:03.057Z,1
2018-03-16T03:30:02.462Z,1
2018-03-16T03:35:02.944Z,1
2018-03-16T03:40:03.462Z,1
2018-03-16T03:45:02.933Z,1
2018-03-16T03:50:03.453Z,1
2018-03-16T03:55:02.923Z,1
2018-03-16T04:00:03.973Z,1
2018-03-16T04:05:02.498Z,1
2018-03-16T04:10:03.024Z,1
2018-03-16T04:15:02.499Z,1
2018-03-16T04:20:02.921Z,1
2018-03-16T04:25:03.407Z,1
2018-03-16T04:30:02.860Z,1
2018-03-16T04:35:03.413Z,1
2018-03-16T04:40:02.911Z,1
2018-03-16T04:45:03.378Z,1
2018-03-16T04:50:02.853Z,1
2018-03-16T04:55:03.415Z,1
2018-03-16T05:00:02.754Z,1
2018-03-16T05:05:03.196Z,1
2018-03-16T05:10:02.674Z,1
2018-03-16T05:15:03.071Z,1
2018-03-16T05:20:02.566Z,2
2018-03-16T05:25:03.263Z,3
2018-03-16T05:30:02.892Z,5
2018-03-16T05:35:03.321Z,11
2018-03-16T05:40:02.779Z,23
2018-03-16T05:45:03.300Z,29
2018-03-16T05:50:02.731Z,28
2018-03-16T05:55:03.168Z,29
2018-03-16T06:00:02.560Z,37
2018-03-16T06:05:03.009Z,41
2018-03-16T06:10:02.537Z,53
2018-03-16T06:15:02.988Z,69
2018-03-16T06:20:03.447Z,73
2018-03-16T06:25:02.876Z,80
2018-03-16T06:30:03.372Z,78
2018-03-16T06:35:02.821Z,91
2018-03-16T06:40:03.303Z,115
2018-03-16T06:45:03.367Z,134
2018-03-16T06:50:02.872Z,126
2018-03-16T06:55:03.367Z,169
2018-03-16T07:00:02.808Z,275
2018-03-16T07:05:03.322Z,275
2018-03-16T07:10:02.875Z,365
2018-03-16T07:15:03.352Z,399
2018-03-16T07:20:02.806Z,415
2018-03-16T07:25:03.261Z,418
2018-03-16T07:30:03.048Z,549
2018-03-16T07:35:02.649Z,561
2018-03-16T07:40:03.463Z,568
2018-03-16T07:45:02.976Z,680
2018-03-16T07:50:03.415Z,863
2018-03-16T07:55:02.930Z,1000
2018-03-16T08:00:03.877Z,1000
2018-03-16T08:05:03.311Z,1000
2018-03-16T08:10:02.816Z,1000
2018-03-16T08:15:03.262Z,1000
2018-03-16T08:20:02.790Z,960
2018-03-16T08:25:03.288Z,1000
2018-03-16T08:30:03.071Z,1000
2018-03-16T08:35:02.607Z,1000
2018-03-16T08:40:03.176Z,1000
2018-03-16T08:45:02.673Z,1000
2018-03-16T08:50:03.173Z,1000
2018-03-16T08:55:02.645Z,2000
2018-03-16T09:00:03.104Z,2000
2018-03-16T09:05:02.574Z,2000
2018-03-16T09:10:03.075Z,3000
2018-03-16T09:15:02.559Z,3000
2018-03-16T09:20:03.093Z,3000
2018-03-16T09:25:02.550Z,3000
2018-03-16T09:30:03.045Z,3000
2018-03-16T09:35:03.093Z,3000
2018-03-16T09:40:02.584Z,3000
2018-03-16T09:45:03.067Z,3000
2018-03-16T09:50:02.602Z,3000
2018-03-16T09:55:03.073Z,3000
2018-03-16T10:00:02.596Z,4000
2018-03-16T10:05:03.115Z,5000
2018-03-16T10:10:02.806Z,5000
2018-03-16T10:15:03.340Z,5000
2018-03-16T10:20:02.861Z,3000
2018-03-16T10:25:03.347Z,3000
2018-03-16T10:30:02.830Z,3000
2018-03-16T10:35:03.400Z,3000
2018-03-16T10:40:02.896Z,2000
2018-03-16T10:45:03.409Z,2000
2018-03-16T10:50:02.912Z,2000
2018-03-16T10:55:03.359Z,2000
2018-03-16T11:00:02.829Z,2000
2018-03-16T11:05:03.305Z,2000
2018-03-16T11:10:02.827Z,2000
2018-03-16T11:15:03.300Z,3000
2018-03-16T11:20:02.892Z,3000
2018-03-16T11:25:03.380Z,3000
2018-03-16T11:30:02.915Z,3000
2018-03-16T11:35:02.468Z,3000
2018-03-16T11:40:03.170Z,2000
2018-03-16T11:45:02.714Z,3000
2018-03-16T11:50:03.223Z,4000
2018-03-16T11:55:02.719Z,3000
2018-03-16T12:00:03.218Z,3000
2018-03-16T12:05:02.731Z,3000
2018-03-16T12:10:03.279Z,4000
2018-03-16T12:15:02.755Z,4000
2018-03-16T12:20:03.313Z,4000
2018-03-16T12:25:02.855Z,3000
2018-03-16T12:30:03.432Z,3000
2018-03-16T12:35:02.896Z,3000
2018-03-16T12:40:03.432Z,4000
2018-03-16T12:45:02.892Z,3000
2018-03-16T12:50:03.390Z,4000
2018-03-16T12:55:02.809Z,3000
2018-03-16T13:00:03.338Z,4000
2018-03-16T13:05:02.828Z,4000
2018-03-16T13:10:03.413Z,3000
2018-03-16T13:15:02.889Z,3000
2018-03-16T13:20:03.363Z,3000
2018-03-16T13:25:02.820Z,4000
2018-03-16T13:30:03.258Z,5000
2018-03-16T13:35:02.752Z,6000
2018-03-16T13:40:03.281Z,5000
2018-03-16T13:45:02.764Z,5000
2018-03-16T13:50:03.376Z,5000
2018-03-16T13:55:02.905Z,3000
2018-03-16T14:00:03.412Z,3000
2018-03-16T14:05:02.884Z,3000
2018-03-16T14:10:03.403Z,2000
2018-03-16T14:15:02.824Z,2000
2018-03-16T14:20:03.320Z,2000
2018-03-16T14:25:02.815Z,2000
2018-03-16T14:30:03.341Z,2000
2018-03-16T14:35:02.787Z,2000
2018-03-16T14:40:03.308Z,2000
2018-03-16T14:45:02.822Z,2000
2018-03-16T14:50:03.323Z,2000
2018-03-16T14:55:02.944Z,2000
2018-03-16T15:00:02.498Z,1000
2018-03-16T15:05:02.962Z,2000
2018-03-16T15:10:02.621Z,1000
2018-03-16T15:15:03.268Z,2000
2018-03-16T15:25:03.226Z,1000
2018-03-16T15:30:02.660Z,1000
2018-03-16T15:35:03.236Z,1000
2018-03-16T15:40:02.712Z,1000
2018-03-16T15:45:03.219Z,1000
2018-03-16T15:50:02.734Z,1000
2018-03-16T15:55:03.438Z,1000
2018-03-16T16:00:02.873Z,1000
2018-03-16T16:05:03.414Z,1000
2018-03-16T16:10:02.925Z,1000
2018-03-16T16:15:02.556Z,1000
2018-03-16T16:20:03.214Z,1000
2018-03-16T16:30:03.198Z,805
2018-03-16T16:35:02.707Z,894
2018-03-16T16:40:03.233Z,961
2018-03-16T16:45:02.726Z,1000
2018-03-16T16:50:03.240Z,953
2018-03-16T16:55:02.907Z,982
2018-03-16T17:00:03.277Z,779
2018-03-16T17:05:02.724Z,515
2018-03-16T17:10:03.226Z,306
2018-03-16T17:15:02.724Z,426
2018-03-16T17:20:03.224Z,281
2018-03-16T17:25:02.696Z,108
2018-03-16T17:30:03.199Z,159
2018-03-16T17:35:02.637Z,94
2018-03-16T17:40:03.130Z,70
2018-03-16T17:45:02.653Z,65
2018-03-16T17:50:03.203Z,66
2018-03-16T17:55:02.824Z,38
2018-03-16T18:00:03.381Z,11
2018-03-16T18:05:02.868Z,7
2018-03-16T18:10:03.415Z,3
2018-03-16T18:15:02.936Z,2
2018-03-16T18:20:02.494Z,1
2018-03-16T18:25:02.940Z,1
2018-03-16T18:30:02.441Z,1
2018-03-16T18:35:02.898Z,1
2018-03-16T18:40:02.561Z,1
2018-03-16T18:45:03.119Z,1
2018-03-16T18:50:02.652Z,1
2018-03-16T18:55:03.174Z,1
2018-03-16T19:00:02.633Z,1
2018-03-16T19:05:02.662Z,1
2018-03-16T19:10:03.242Z,1
2018-03-16T19:15:02.739Z,1
2018-03-16T19:20:03.265Z,1
2018-03-16T19:25:02.776Z,1
2018-03-16T19:30:03.238Z,1
2018-03-16T19:35:02.764Z,1
2018-03-16T19:40:03.343Z,1
2018-03-16T19:45:02.907Z,1
2018-03-16T19:50:02.459Z,1
2018-03-16T19:55:03.008Z,1
2018-03-16T20:00:02.544Z,1
2018-03-16T20:05:02.990Z,1
2018-03-16T20:10:02.488Z,1
2018-03-16T20:15:02.945Z,1
2018-03-16T20:20:02.456Z,1
2018-03-16T20:25:02.985Z,1
2018-03-16T20:30:03.481Z,1
2018-03-16T20:35:03.006Z,1
2018-03-16T20:40:02.540Z,1
2018-03-16T20:45:03.003Z,1
2018-03-16T20:50:02.607Z,1
2018-03-16T20:55:03.203Z,1
2018-03-16T21:00:02.728Z,1
2018-03-16T21:05:03.306Z,1
2018-03-16T21:10:02.841Z,1
2018-03-16T21:15:03.362Z,1
2018-03-16T21:20:02.984Z,1
2018-03-16T21:25:02.616Z,1
2018-03-16T21:30:03.117Z,1
2018-03-16T21:35:02.588Z,1
2018-03-16T21:40:03.067Z,1
2018-03-16T21:45:02.522Z,1
2018-03-16T21:50:03.092Z,1
2018-03-16T21:55:02.616Z,1
2018-03-16T22:00:03.120Z,1
2018-03-16T22:05:02.655Z,1
2018-03-16T22:10:03.291Z,1
2018-03-16T22:15:02.827Z,1
2018-03-16T22:20:03.338Z,1
2018-03-16T22:25:02.885Z,1
2018-03-16T22:30:03.519Z,1
2018-03-16T22:35:02.945Z,1
2018-03-16T22:40:02.498Z,1
2018-03-16T22:45:03.001Z,1
2018-03-16T22:50:03.435Z,1
2018-03-16T22:55:02.935Z,1
2018-03-16T23:00:03.333Z,1
2018-03-16T23:05:03.219Z,1
2018-03-16T23:10:02.916Z,1
2018-03-16T23:15:03.369Z,1
2018-03-16T23:20:02.816Z,1
2018-03-16T23:25:03.297Z,1
2018-03-16T23:30:02.802Z,1
2018-03-16T23:35:03.334Z,1
2018-03-16T23:40:02.899Z,1
2018-03-16T23:45:03.369Z,1
2018-03-16T23:50:02.849Z,1
2018-03-16T23:55:03.324Z,1
